createdAt,value
2017-09-14T00:00:57.311Z,99339.42
2017-09-14T00:03:23.744Z,99343.83
2017-09-14T00:05:50.179Z,99345.37
2017-09-14T00:08:16.612Z,99338.30
2017-09-14T00:10:43.004Z,99338.97
2017-09-14T00:13:10.202Z,99336.59
2017-09-14T00:15:36.590Z,99340.43
2017-09-14T00:18:03.019Z,99339.39
2017-09-14T00:20:29.511Z,99348.27
2017-09-14T00:22:55.939Z,99344.50
2017-09-14T00:25:22.374Z,99343.24
2017-09-14T00:27:48.759Z,99344.28
2017-09-14T00:30:16.063Z,99340.69
2017-09-14T00:32:42.451Z,99336.66
2017-09-14T00:35:08.922Z,99338.10
2017-09-14T00:37:35.368Z,99323.56
2017-09-14T00:40:01.804Z,99334.48
2017-09-14T00:42:28.237Z,99332.66
2017-09-14T00:44:54.673Z,99334.83
2017-09-14T00:47:21.824Z,99332.00
2017-09-14T00:49:48.262Z,99310.60
2017-09-14T00:52:14.694Z,99325.73
2017-09-14T00:54:41.129Z,99329.00
2017-09-14T00:57:07.564Z,99326.86
2017-09-14T00:59:34.101Z,99325.17
2017-09-14T01:02:00.537Z,99324.28
2017-09-14T01:04:27.711Z,99320.05
2017-09-14T01:06:54.125Z,99320.06
2017-09-14T01:09:20.558Z,99321.83
2017-09-14T01:11:46.992Z,99324.61
2017-09-14T01:14:13.376Z,99323.36
2017-09-14T01:16:39.847Z,99312.62
2017-09-14T01:19:06.247Z,99293.84
2017-09-14T01:21:33.434Z,99322.20
2017-09-14T01:23:59.884Z,99315.98
2017-09-14T01:26:26.267Z,99320.47
2017-09-14T01:28:52.754Z,99317.39
2017-09-14T01:31:19.192Z,99321.56
2017-09-14T01:33:45.623Z,99316.11
2017-09-14T01:36:12.008Z,99313.30
2017-09-14T01:38:39.210Z,99316.02
2017-09-14T01:41:05.645Z,99312.20
2017-09-14T01:43:32.080Z,99314.13
2017-09-14T01:45:58.515Z,99315.50
2017-09-14T01:48:24.950Z,99322.13
2017-09-14T01:50:51.387Z,99305.64
2017-09-14T01:53:17.820Z,99314.27
2017-09-14T01:55:45.074Z,99320.13
2017-09-14T01:58:11.494Z,99316.92
2017-09-14T02:00:37.944Z,99323.56
2017-09-14T02:03:04.379Z,99324.20
2017-09-14T02:05:30.836Z,99317.00
2017-09-14T02:07:57.249Z,99328.73
2017-09-14T02:10:23.637Z,99326.57
2017-09-14T02:12:50.835Z,99325.77
2017-09-14T02:15:17.269Z,99322.33
2017-09-14T02:17:43.729Z,99323.28
2017-09-14T02:20:10.094Z,99315.70
2017-09-14T02:22:36.575Z,99324.08
2017-09-14T02:25:03.010Z,99322.64
2017-09-14T02:27:29.395Z,99328.71
2017-09-14T02:32:22.929Z,99320.27
2017-09-14T02:34:49.363Z,99318.02
2017-09-14T02:37:15.902Z,99327.14
2017-09-14T02:39:42.336Z,99324.24
2017-09-14T02:42:08.771Z,99325.55
2017-09-14T02:44:35.206Z,99321.14
2017-09-14T02:47:02.367Z,99302.95
2017-09-14T02:49:28.844Z,99313.57
2017-09-14T02:51:55.278Z,99318.13
2017-09-14T02:54:21.752Z,99324.27
2017-09-14T02:56:48.201Z,99317.40
2017-09-14T02:59:14.655Z,99319.02
2017-09-14T03:01:41.150Z,99315.92
2017-09-14T03:04:08.268Z,99318.23
2017-09-14T03:06:34.757Z,99319.75
2017-09-14T03:09:01.193Z,99321.98
2017-09-14T03:11:27.629Z,99315.87
2017-09-14T03:13:54.063Z,99325.88
2017-09-14T03:16:20.447Z,99319.19
2017-09-14T03:18:46.935Z,99320.92
2017-09-14T03:21:14.086Z,99321.42
2017-09-14T03:23:40.469Z,99323.27
2017-09-14T03:26:06.953Z,99322.36
2017-09-14T03:28:33.492Z,99303.86
2017-09-14T03:30:59.927Z,99307.53
2017-09-14T03:33:26.361Z,99322.41
2017-09-14T03:35:52.749Z,99320.22
2017-09-14T03:38:19.914Z,99320.73
2017-09-14T03:40:46.356Z,99318.06
2017-09-14T03:43:12.820Z,99314.46
2017-09-14T03:45:39.271Z,99309.50
2017-09-14T03:48:05.688Z,99306.85
2017-09-14T03:50:32.121Z,99312.34
2017-09-14T03:52:58.558Z,99308.75
2017-09-14T03:55:25.727Z,99319.44
2017-09-14T03:57:52.246Z,99314.94
2017-09-14T04:00:18.682Z,99307.72
2017-09-14T04:02:45.116Z,99322.33
2017-09-14T04:05:11.551Z,99316.97
2017-09-14T04:07:37.986Z,99311.61
2017-09-14T04:10:04.371Z,99313.77
2017-09-14T04:12:31.675Z,99311.09
2017-09-14T04:14:58.110Z,99303.98
2017-09-14T04:17:24.647Z,99279.36
2017-09-14T04:19:51.084Z,99300.45
2017-09-14T04:22:17.517Z,99301.36
2017-09-14T04:24:43.952Z,99305.28
2017-09-14T04:27:10.386Z,99296.12
2017-09-14T04:29:37.643Z,99302.02
2017-09-14T04:32:04.077Z,99303.76
2017-09-14T04:34:30.463Z,99308.97
2017-09-14T04:36:57.050Z,99304.28
2017-09-14T04:39:23.482Z,99300.52
2017-09-14T04:41:49.920Z,99299.76
2017-09-14T04:44:16.354Z,99302.70
2017-09-14T04:46:43.610Z,99305.52
2017-09-14T04:49:10.044Z,99301.94
2017-09-14T04:51:36.423Z,99306.65
2017-09-14T04:54:02.808Z,99309.23
2017-09-14T04:56:29.243Z,99302.42
2017-09-14T04:58:55.681Z,99302.28
2017-09-14T05:01:22.114Z,99304.78
2017-09-14T05:03:49.352Z,99295.28
2017-09-14T05:06:15.805Z,99304.16
2017-09-14T05:08:42.236Z,99303.73
2017-09-14T05:11:08.654Z,99302.83
2017-09-14T05:13:35.100Z,99300.87
2017-09-14T05:16:01.548Z,99302.28
2017-09-14T05:18:27.977Z,99295.13
2017-09-14T05:20:55.129Z,99295.22
2017-09-14T05:23:21.564Z,99291.83
2017-09-14T05:25:47.999Z,99290.48
2017-09-14T05:28:14.377Z,99288.70
2017-09-14T05:30:40.873Z,99286.61
2017-09-14T05:33:07.252Z,99286.47
2017-09-14T05:35:33.730Z,99275.28
2017-09-14T05:38:00.891Z,99278.80
2017-09-14T05:40:27.327Z,99278.23
2017-09-14T05:42:53.760Z,99274.38
2017-09-14T05:45:20.298Z,99273.03
2017-09-14T05:47:46.732Z,99273.59
2017-09-14T05:50:13.167Z,99272.05
2017-09-14T05:52:39.601Z,99272.03
2017-09-14T05:55:05.982Z,99276.90
2017-09-14T05:57:32.676Z,99278.08
2017-09-14T05:59:59.035Z,99272.01
2017-09-14T06:02:25.444Z,99278.34
2017-09-14T06:04:52.070Z,99253.72
2017-09-14T06:07:18.620Z,99265.38
2017-09-14T06:09:45.077Z,99272.81
2017-09-14T06:12:11.592Z,99274.05
2017-09-14T06:14:38.048Z,99269.66
2017-09-14T06:17:04.411Z,99275.86
2017-09-14T06:19:30.973Z,99272.17
2017-09-14T06:21:57.415Z,99267.97
2017-09-14T06:24:24.284Z,99264.39
2017-09-14T06:26:50.715Z,99270.98
2017-09-14T06:29:17.150Z,99265.31
2017-09-14T06:31:43.586Z,99266.60
2017-09-14T06:34:10.019Z,99241.58
2017-09-14T06:36:36.965Z,99264.06
2017-09-14T06:39:03.350Z,99263.48
2017-09-14T06:41:30.246Z,99262.09
2017-09-14T06:43:56.681Z,99265.23
2017-09-14T06:46:23.166Z,99267.98
2017-09-14T06:48:49.635Z,99259.97
2017-09-14T06:51:16.304Z,99262.42
2017-09-14T06:53:42.726Z,99252.34
2017-09-14T06:56:09.166Z,99247.89
2017-09-14T06:58:36.443Z,99247.37
2017-09-14T07:01:02.955Z,99248.22
2017-09-14T07:03:29.389Z,99246.64
2017-09-14T07:05:56.028Z,99247.47
2017-09-14T07:08:22.527Z,99246.53
2017-09-14T07:13:30.213Z,99245.19
2017-09-14T07:26:02.648Z,99231.04
2017-09-14T07:28:29.086Z,99236.16
2017-09-14T07:30:55.520Z,99217.09
2017-09-14T07:33:21.826Z,99224.14
2017-09-14T07:35:48.259Z,99223.44
2017-09-14T07:38:14.823Z,99222.33
2017-09-14T07:40:41.359Z,99223.64
2017-09-14T07:43:07.795Z,99215.05
2017-09-14T07:45:34.186Z,99219.02
2017-09-14T07:48:00.670Z,99214.59
2017-09-14T07:50:27.121Z,99206.69
2017-09-14T07:52:53.558Z,99195.77
2017-09-14T07:55:20.072Z,99196.55
2017-09-14T07:57:46.612Z,99200.20
2017-09-14T08:00:12.944Z,99201.50
2017-09-14T08:02:39.376Z,99191.25
2017-09-14T08:05:06.054Z,99192.37
2017-09-14T08:07:32.399Z,99196.02
2017-09-14T08:09:58.889Z,99197.88
2017-09-14T08:12:25.941Z,99183.98
2017-09-14T08:14:52.372Z,99189.44
2017-09-14T08:17:18.805Z,99183.54
2017-09-14T08:19:45.240Z,99181.66
2017-09-14T08:22:11.614Z,99181.49
2017-09-14T08:24:38.099Z,99186.02
2017-09-14T08:27:04.753Z,99177.13
2017-09-14T08:29:31.185Z,99177.93
2017-09-14T08:31:57.560Z,99174.67
2017-09-14T08:34:24.054Z,99168.73
2017-09-14T08:36:50.490Z,99163.34
2017-09-14T08:39:16.924Z,99157.66
2017-09-14T08:41:43.360Z,99152.60
2017-09-14T08:44:09.793Z,99143.86
2017-09-14T08:46:36.230Z,99148.64
2017-09-14T08:49:02.869Z,99138.13
2017-09-14T08:51:29.239Z,99130.00
2017-09-14T08:53:56.864Z,99127.06
2017-09-14T08:56:23.403Z,99133.22
2017-09-14T08:58:49.939Z,99123.97
2017-09-14T09:01:16.375Z,99124.39
2017-09-14T09:06:14.985Z,99119.28
2017-09-14T09:08:41.536Z,99118.18
2017-09-14T09:11:08.074Z,99116.45
2017-09-14T09:13:34.510Z,99114.70
2017-09-14T09:16:01.047Z,99114.34
2017-09-14T09:18:27.426Z,99111.23
2017-09-14T09:20:53.914Z,99106.09
2017-09-14T09:23:20.348Z,99101.42
2017-09-14T09:25:46.897Z,99097.88
2017-09-14T09:28:13.628Z,99089.20
2017-09-14T09:30:40.083Z,99089.59
2017-09-14T09:33:06.909Z,99089.98
2017-09-14T09:35:33.751Z,99076.58
2017-09-14T09:38:00.195Z,99072.02
2017-09-14T09:40:26.934Z,99069.88
2017-09-14T09:42:53.574Z,99066.71
2017-09-14T09:45:20.105Z,99067.09
2017-09-14T09:47:46.490Z,99066.48
2017-09-14T09:50:12.955Z,99063.36
2017-09-14T09:52:39.410Z,99052.09
2017-09-14T09:55:05.845Z,99058.42
2017-09-14T09:57:32.279Z,99052.89
2017-09-14T09:59:58.631Z,99056.25
2017-09-14T10:02:25.048Z,99046.77
2017-09-14T10:04:51.482Z,99042.63
2017-09-14T10:07:17.917Z,99035.88
2017-09-14T10:09:44.351Z,99040.79
2017-09-14T10:12:10.787Z,99024.84
2017-09-14T10:14:37.426Z,99035.69
2017-09-14T10:17:03.812Z,99027.80
2017-09-14T10:19:30.297Z,99016.38
2017-09-14T10:21:56.733Z,99016.95
2017-09-14T10:24:23.167Z,99000.15
2017-09-14T10:26:49.706Z,99013.38
2017-09-14T10:29:16.342Z,99006.48
2017-09-14T10:31:42.925Z,99009.63
2017-09-14T10:34:09.279Z,99004.52
2017-09-14T10:36:35.646Z,99002.72
2017-09-14T10:39:02.389Z,98997.92
2017-09-14T10:41:28.928Z,98989.34
2017-09-14T10:43:55.367Z,98986.34
2017-09-14T10:46:22.308Z,98971.35
2017-09-14T10:48:48.744Z,98980.65
2017-09-14T10:51:15.179Z,98980.60
2017-09-14T10:53:41.614Z,98966.51
2017-09-14T10:56:08.150Z,98961.95
2017-09-14T10:58:34.530Z,98959.33
2017-09-14T11:01:01.118Z,98953.89
2017-09-14T11:03:27.581Z,98942.35
2017-09-14T11:05:54.299Z,98943.92
2017-09-14T11:08:20.882Z,98932.05
2017-09-14T11:10:48.229Z,98929.02
2017-09-14T11:15:46.670Z,98913.28
2017-09-14T11:18:13.144Z,98923.84
2017-09-14T11:20:39.677Z,98902.87
2017-09-14T11:23:06.590Z,98909.88
2017-09-14T11:25:33.331Z,98898.61
2017-09-14T11:27:59.755Z,98874.73
2017-09-14T11:30:26.225Z,98898.00
2017-09-14T11:32:53.762Z,98887.89
2017-09-14T11:35:20.242Z,98888.98
2017-09-14T11:37:46.840Z,98878.56
2017-09-14T11:40:13.477Z,98872.72
2017-09-14T11:42:39.924Z,98860.65
2017-09-14T11:45:06.450Z,98864.08
2017-09-14T11:47:32.986Z,98859.68
2017-09-14T11:49:59.525Z,98849.58
2017-09-14T11:52:26.070Z,98842.41
2017-09-14T11:54:52.702Z,98846.87
2017-09-14T11:57:19.240Z,98844.64
2017-09-14T11:59:45.879Z,98840.63
2017-09-14T12:02:12.415Z,98839.06
2017-09-14T12:04:38.748Z,98835.19
2017-09-14T12:07:05.182Z,98815.14
2017-09-14T12:09:32.152Z,98820.08
2017-09-14T12:11:58.618Z,98816.94
2017-09-14T12:14:25.036Z,98813.81
2017-09-14T12:16:51.536Z,98808.24
2017-09-14T12:19:17.979Z,98804.08
2017-09-14T12:21:44.453Z,98796.03
2017-09-14T12:24:11.046Z,98791.09
2017-09-14T12:26:37.434Z,98790.42
2017-09-14T12:29:04.021Z,98789.08
2017-09-14T12:31:30.763Z,98779.79
2017-09-14T12:33:57.646Z,98774.52
2017-09-14T12:36:24.039Z,98772.52
2017-09-14T12:38:50.487Z,98762.90
2017-09-14T12:41:17.014Z,98765.17
2017-09-14T12:43:43.864Z,98765.47
2017-09-14T12:46:10.600Z,98749.01
2017-09-14T12:48:38.546Z,98744.80
2017-09-14T12:51:05.075Z,98746.14
2017-09-14T12:53:31.478Z,98738.01
2017-09-14T12:55:58.489Z,98748.45
2017-09-14T12:58:25.131Z,98734.09
2017-09-14T13:00:51.608Z,98717.64
2017-09-14T13:03:18.320Z,98731.38
2017-09-14T13:05:45.153Z,98722.52
2017-09-14T13:08:13.231Z,98708.12
2017-09-14T13:10:39.697Z,98724.27
2017-09-14T13:13:06.027Z,98710.96
2017-09-14T13:15:32.608Z,98711.48
2017-09-14T13:17:59.607Z,98705.91
2017-09-14T13:20:26.013Z,98704.14
2017-09-14T13:22:52.672Z,98701.31
2017-09-14T13:25:19.142Z,98694.70
2017-09-14T13:27:45.561Z,98700.47
2017-09-14T13:42:49.621Z,98675.14
2017-09-14T13:55:21.922Z,98670.84
2017-09-14T13:57:48.357Z,98664.05
2017-09-14T14:00:14.816Z,98662.11
2017-09-14T14:02:41.943Z,98656.55
2017-09-14T14:05:08.322Z,98655.00
2017-09-14T14:07:35.634Z,98655.80
2017-09-14T14:10:02.171Z,98645.50
2017-09-14T14:12:28.605Z,98648.16
2017-09-14T14:14:55.040Z,98637.34
2017-09-14T14:17:21.393Z,98643.25
2017-09-14T14:19:47.806Z,98633.50
2017-09-14T14:22:14.246Z,98633.42
2017-09-14T14:24:40.676Z,98626.89
2017-09-14T14:29:39.998Z,98618.00
2017-09-14T14:32:06.536Z,98615.77
2017-09-14T14:34:33.195Z,98616.23
2017-09-14T14:36:59.588Z,98611.55
2017-09-14T14:39:26.091Z,98608.85
2017-09-14T14:41:52.710Z,98605.80
2017-09-14T14:44:19.292Z,98605.97
2017-09-14T14:46:45.657Z,98599.02
2017-09-14T14:49:12.102Z,98595.89
2017-09-14T14:51:38.594Z,98595.77
2017-09-14T14:54:05.385Z,98600.34
2017-09-14T14:56:32.386Z,98602.28
2017-09-14T14:58:58.958Z,98568.17
2017-09-14T15:01:25.394Z,98600.53
2017-09-14T15:03:51.931Z,98592.67
2017-09-14T15:06:18.468Z,98589.76
2017-09-14T15:08:44.902Z,98587.27
2017-09-14T15:11:11.294Z,98580.77
2017-09-14T15:13:37.772Z,98589.77
2017-09-14T15:16:04.150Z,98589.11
2017-09-14T15:18:30.642Z,98587.70
2017-09-14T15:20:57.077Z,98586.48
2017-09-14T15:23:23.615Z,98586.98
2017-09-14T15:25:50.152Z,98581.43
2017-09-14T15:28:17.303Z,98576.23
2017-09-14T15:30:43.785Z,98558.16
2017-09-14T15:33:10.256Z,98581.19
2017-09-14T15:35:36.758Z,98557.02
2017-09-14T15:38:03.241Z,98575.63
2017-09-14T15:40:29.662Z,98571.86
2017-09-14T15:42:56.117Z,98567.84
2017-09-14T15:45:23.214Z,98569.91
2017-09-14T15:47:49.602Z,98565.70
2017-09-14T15:50:16.139Z,98561.23
2017-09-14T15:52:42.678Z,98559.73
2017-09-14T15:55:09.111Z,98565.67
2017-09-14T15:57:35.548Z,98557.52
2017-09-14T16:00:01.981Z,98560.50
2017-09-14T16:02:29.236Z,98562.16
2017-09-14T16:04:55.670Z,98563.11
2017-09-14T16:07:22.106Z,98556.25
2017-09-14T16:09:48.486Z,98551.84
2017-09-14T16:12:14.923Z,98554.80
2017-09-14T16:14:41.391Z,98552.16
2017-09-14T16:17:07.844Z,98552.99
2017-09-14T16:19:34.996Z,98553.39
2017-09-14T16:22:01.436Z,98548.98
2017-09-14T16:24:27.968Z,98533.50
2017-09-14T16:26:54.402Z,98545.72
2017-09-14T16:29:20.791Z,98538.76
2017-09-14T16:31:47.134Z,98547.78
2017-09-14T16:34:13.608Z,98536.80
2017-09-14T16:36:40.758Z,98540.62
2017-09-14T16:39:07.295Z,98534.79
2017-09-14T16:41:33.711Z,98540.53
2017-09-14T16:44:00.143Z,98547.25
2017-09-14T16:46:26.601Z,98547.09
2017-09-14T16:48:53.036Z,98547.86
2017-09-14T16:51:19.414Z,98548.08
2017-09-14T16:53:46.621Z,98552.83
2017-09-14T16:56:13.055Z,98553.66
2017-09-14T16:58:39.490Z,98556.47
2017-09-14T17:01:05.928Z,98560.05
2017-09-14T17:03:32.566Z,98559.70
2017-09-14T17:05:58.999Z,98563.27
2017-09-14T17:08:25.434Z,98570.25
2017-09-14T17:10:52.484Z,98570.48
2017-09-14T17:13:19.022Z,98568.91
2017-09-14T17:15:45.475Z,98578.77
2017-09-14T17:18:11.892Z,98575.44
2017-09-14T17:20:38.327Z,98587.30
2017-09-14T17:23:04.816Z,98588.70
2017-09-14T17:25:31.196Z,98587.33
2017-09-14T17:27:58.451Z,98593.05
2017-09-14T17:30:24.886Z,98597.02
2017-09-14T17:32:51.421Z,98597.61
2017-09-14T17:35:17.861Z,98594.64
2017-09-14T17:37:44.293Z,98599.78
2017-09-14T17:40:10.790Z,98608.81
2017-09-14T17:42:37.265Z,98604.69
2017-09-14T17:45:04.416Z,98608.42
2017-09-14T17:47:30.787Z,98610.97
2017-09-14T17:49:57.145Z,98613.87
2017-09-14T17:52:23.572Z,98614.27
2017-09-14T17:54:50.053Z,98617.02
2017-09-14T17:57:16.488Z,98625.67
2017-09-14T17:59:42.923Z,98617.41
2017-09-14T18:02:10.094Z,98620.91
2017-09-14T18:04:36.598Z,98620.04
2017-09-14T18:07:03.048Z,98621.80
2017-09-14T18:09:29.404Z,98618.69
2017-09-14T18:11:55.815Z,98621.39
2017-09-14T18:14:22.398Z,98620.92
2017-09-14T18:16:48.787Z,98618.94
2017-09-14T18:19:15.928Z,98618.12
2017-09-14T18:21:42.374Z,98616.92
2017-09-14T18:24:08.911Z,98620.78
2017-09-14T18:26:35.346Z,98622.92
2017-09-14T18:29:01.782Z,98622.13
2017-09-14T18:31:28.218Z,98622.11
2017-09-14T18:33:54.709Z,98626.77
2017-09-14T18:36:21.774Z,98620.23
2017-09-14T18:38:48.221Z,98628.28
2017-09-14T18:41:14.674Z,98625.31
2017-09-14T18:43:41.209Z,98627.73
2017-09-14T18:46:07.644Z,98627.44
2017-09-14T18:48:34.079Z,98617.12
2017-09-14T18:51:00.517Z,98622.77
2017-09-14T18:53:27.666Z,98613.72
2017-09-14T18:55:54.051Z,98609.55
2017-09-14T18:58:20.536Z,98614.08
2017-09-14T19:00:46.971Z,98614.45
2017-09-14T19:03:13.407Z,98615.62
2017-09-14T19:05:39.840Z,98609.90
2017-09-14T19:08:06.262Z,98612.24
2017-09-14T19:10:33.429Z,98614.63
2017-09-14T19:12:59.966Z,98610.47
2017-09-14T19:15:26.341Z,98614.42
2017-09-14T19:17:52.787Z,98611.88
2017-09-14T19:20:19.166Z,98609.78
2017-09-14T19:22:45.704Z,98608.87
2017-09-14T19:25:12.142Z,98611.12
2017-09-14T19:27:39.380Z,98610.83
2017-09-14T19:30:05.830Z,98612.56
2017-09-14T19:32:32.264Z,98609.69
2017-09-14T19:34:58.651Z,98607.55
2017-09-14T19:37:25.099Z,98610.02
2017-09-14T19:39:51.465Z,98600.09
2017-09-14T19:42:17.886Z,98602.89
2017-09-14T19:44:45.260Z,98601.45
2017-09-14T19:47:11.691Z,98608.50
2017-09-14T19:49:38.125Z,98608.03
2017-09-14T19:52:04.561Z,98604.50
2017-09-14T19:54:31.051Z,98607.36
2017-09-14T19:56:57.449Z,98613.00
2017-09-14T19:59:23.866Z,98614.81
2017-09-14T20:01:51.121Z,98616.27
2017-09-14T20:04:17.648Z,98607.28
2017-09-14T20:06:44.048Z,98615.16
2017-09-14T20:09:10.526Z,98591.62
2017-09-14T20:11:36.961Z,98620.05
2017-09-14T20:14:03.397Z,98620.56
2017-09-14T20:16:29.857Z,98614.95
2017-09-14T20:18:56.983Z,98613.80
2017-09-14T20:21:23.420Z,98616.37
2017-09-14T20:23:49.921Z,98621.64
2017-09-14T20:26:16.393Z,98620.38
2017-09-14T20:28:42.775Z,98617.73
2017-09-14T20:31:09.157Z,98618.34
2017-09-14T20:33:35.696Z,98628.78
2017-09-14T20:36:02.799Z,98620.43
2017-09-14T20:38:29.282Z,98618.09
2017-09-14T20:40:55.716Z,98617.37
2017-09-14T20:43:22.253Z,98604.00
2017-09-14T20:45:48.700Z,98608.20
2017-09-14T20:48:15.226Z,98604.20
2017-09-14T20:50:41.660Z,98607.29
2017-09-14T20:53:08.916Z,98604.00
2017-09-14T20:55:35.453Z,98603.75
2017-09-14T20:58:02.031Z,98600.59
2017-09-14T21:00:28.527Z,98598.03
2017-09-14T21:02:55.047Z,98596.75
2017-09-14T21:05:21.499Z,98609.94
2017-09-14T21:07:47.934Z,98601.95
2017-09-14T21:10:15.025Z,98597.86
2017-09-14T21:12:41.521Z,98597.55
2017-09-14T21:15:07.956Z,98591.00
2017-09-14T21:17:34.409Z,98596.27
2017-09-14T21:20:00.928Z,98597.99
2017-09-14T21:22:27.362Z,98596.52
2017-09-14T21:24:53.751Z,98587.61
2017-09-14T21:27:20.949Z,98587.65
2017-09-14T21:29:47.384Z,98587.90
2017-09-14T21:32:13.820Z,98582.90
2017-09-14T21:34:40.354Z,98584.52
2017-09-14T21:37:06.747Z,98575.97
2017-09-14T21:39:33.213Z,98546.67
2017-09-14T21:41:59.657Z,98567.86
2017-09-14T21:44:26.765Z,98564.06
2017-09-14T21:46:53.242Z,98572.62
2017-09-14T21:49:19.634Z,98572.66
2017-09-14T21:51:46.102Z,98560.78
2017-09-14T21:54:12.656Z,98561.48
2017-09-14T21:56:39.038Z,98555.83
2017-09-14T21:59:05.422Z,98559.41
2017-09-14T22:01:32.727Z,98552.72
2017-09-14T22:03:59.214Z,98558.17
2017-09-14T22:06:25.633Z,98555.03
2017-09-14T22:08:52.076Z,98555.47
2017-09-14T22:11:18.522Z,98549.06
2017-09-14T22:13:45.061Z,98546.09
2017-09-14T22:16:11.495Z,98550.98
2017-09-14T22:18:38.746Z,98550.41
2017-09-14T22:21:05.179Z,98551.98
2017-09-14T22:23:31.717Z,98551.78
2017-09-14T22:25:58.152Z,98545.06
2017-09-14T22:28:24.690Z,98549.41
2017-09-14T22:30:51.123Z,98548.06
2017-09-14T22:33:18.686Z,98549.20
2017-09-14T22:35:45.223Z,98547.80
2017-09-14T22:38:11.658Z,98549.04
2017-09-14T22:40:38.092Z,98549.17
2017-09-14T22:43:04.631Z,98558.55
2017-09-14T22:45:31.070Z,98556.00
2017-09-14T22:47:57.500Z,98553.16
2017-09-14T22:50:23.935Z,98548.09
2017-09-14T22:52:51.188Z,98556.19
2017-09-14T22:55:17.625Z,98550.50
2017-09-14T22:57:44.006Z,98532.32
2017-09-14T23:00:10.495Z,98551.30
2017-09-14T23:02:37.030Z,98557.36
2017-09-14T23:05:03.461Z,98539.36
2017-09-14T23:07:29.870Z,98552.61
2017-09-14T23:09:57.053Z,98548.67
2017-09-14T23:12:23.487Z,98549.81
2017-09-14T23:14:49.923Z,98551.18
2017-09-14T23:17:16.301Z,98556.27
2017-09-14T23:19:42.738Z,98549.58
2017-09-14T23:22:09.227Z,98550.95
2017-09-14T23:24:35.765Z,98556.84
2017-09-14T23:27:02.936Z,98554.69
2017-09-14T23:29:29.453Z,98551.52
2017-09-14T23:31:55.887Z,98551.86
2017-09-14T23:34:22.423Z,98549.42
2017-09-14T23:36:48.816Z,98557.81
2017-09-14T23:39:15.284Z,98556.38
2017-09-14T23:41:41.730Z,98559.98
2017-09-14T23:44:08.984Z,98554.43
2017-09-14T23:46:35.418Z,98561.41
2017-09-14T23:49:01.855Z,98554.36
2017-09-14T23:51:28.310Z,98550.73
2017-09-14T23:53:54.775Z,98556.88
2017-09-14T23:56:21.232Z,98546.88
2017-09-14T23:58:47.643Z,98553.05
